BIENTÔT MET'MAP
version 2.0 !

Prévue avant fin octobre,
la nouvelle version sera
plus belle, plus complète
et hébergée sur un serveur
3 fois plus puissant...
et toujours gratuite !


Pas compatible ?
Essayez la version Mobile !

SE CONNECTER : | S'inscrire | Disclaimer | Découvrir Orbifly |
Code OACI :
LŽgende : VFR VFR Marginal IFR IFR Intensif IFR TrŽs Intensif
Visi :
Plafond :
>= 8 km
>= 3000ft
5 ˆ 8 km
1000 ˆ 3000 ft
1500m ˆ 5 km
500 ˆ 1000 ft
800 ˆ 1500m
200 ˆ 500 ft
< 800m
< 200 ft

METAR - ETIK Illesheim Air Base - 17 Sep 2019 06:28 UTC
Data Sources :     NOAA   



- Altitude de l'aérodrome : 1079 ft
- Pas de NOTAMs connus.


ETIK - Illesheim Air Base

Dernier METAR connu : 2015/08/11 07:58 ETIK 110758Z AUTO VRB02KT 9999 SCT015 22/20 A3004 RMK AO2 SLP161 T02210203
TAF AMD TAF ETIK
Valide du 17 à 03h jusqu'au 18 à 04h UTC


170301Z 1703/1804 29006KT 9000 -SHRA BKN010 QNH3007INS
BECMG 1703/1704 33006KT 9999 NSW OVC020 QNH3009INS
BECMG 1707/1708 31009KT 9999 OVC030 QNH3011INS
TEMPO 1708/1716 31012G20KT
BECMG 1715/1716 30006KT 9999 OVC035 QNH3022INS TX20/1713Z TN08/1703Z

Source NOAA


MET'MAP, la Météo Aéronautique d'un coup d'oeil ! - Copyright ORBIFLY Décembre 2007

Développement & Programmation : Alexandra Zaïnal
Co-Développement : Marc-Olivier Méhu
Soutien technique & logistique : Manuel Goepfert
Conception & Financement : Baudouin d'Aumeries